createdAt,value
2023-05-13T00:00:50.035Z,10.70
2023-05-13T00:03:18.642Z,13.10
2023-05-13T00:05:46.978Z,8.80
2023-05-13T00:08:14.987Z,11.00
2023-05-13T00:10:42.893Z,9.90
2023-05-13T00:13:10.870Z,8.80
2023-05-13T00:15:38.798Z,6.20
2023-05-13T00:18:06.980Z,8.00
2023-05-13T00:20:34.905Z,7.00
2023-05-13T00:23:03.389Z,6.50
2023-05-13T00:25:31.371Z,9.40
2023-05-13T00:27:59.366Z,11.70
2023-05-13T00:30:27.304Z,6.30
2023-05-13T00:32:55.445Z,6.20
2023-05-13T00:35:23.441Z,8.10
2023-05-13T00:37:51.328Z,11.30
2023-05-13T00:40:24.570Z,9.10
2023-05-13T00:42:53.983Z,10.30
2023-05-13T00:45:21.914Z,19.00
2023-05-13T00:47:50.361Z,11.00
2023-05-13T00:50:18.749Z,12.80
2023-05-13T00:52:49.876Z,11.80
2023-05-13T00:55:17.916Z,15.20
2023-05-13T00:57:45.883Z,15.40
2023-05-13T01:00:14.380Z,12.10
2023-05-13T01:02:57.340Z,11.30
2023-05-13T01:05:35.318Z,11.80
2023-05-13T01:08:06.188Z,12.80
2023-05-13T01:10:49.852Z,14.10
2023-05-13T01:13:24.783Z,11.10
2023-05-13T01:16:10.496Z,14.20
2023-05-13T01:18:43.783Z,20.20
2023-05-13T01:21:12.516Z,23.30
2023-05-13T01:23:40.509Z,19.70
2023-05-13T01:26:08.634Z,15.00
2023-05-13T01:28:36.877Z,16.20
2023-05-13T01:31:06.227Z,11.80
2023-05-13T01:33:34.331Z,19.30
2023-05-13T01:36:03.215Z,11.90
2023-05-13T01:38:33.026Z,17.70
2023-05-13T01:41:01.394Z,14.90
2023-05-13T01:43:31.459Z,19.60
2023-05-13T01:46:01.028Z,14.90
2023-05-13T01:48:29.101Z,12.40
2023-05-13T01:50:58.411Z,12.70
2023-05-13T01:53:26.954Z,11.50
2023-05-13T01:55:54.819Z,14.30
2023-05-13T01:58:22.956Z,15.10
2023-05-13T02:00:51.029Z,9.80
2023-05-13T02:03:19.456Z,14.50
2023-05-13T02:05:49.026Z,9.90
2023-05-13T02:08:16.909Z,15.60
2023-05-13T02:10:45.300Z,14.60
2023-05-13T02:13:13.250Z,14.50
2023-05-13T02:15:41.724Z,10.60
2023-05-13T02:18:10.434Z,11.10
2023-05-13T02:20:38.456Z,11.30
2023-05-13T02:23:07.005Z,11.30
2023-05-13T02:25:36.836Z,13.00
2023-05-13T02:28:04.940Z,14.80
2023-05-13T02:30:33.053Z,11.00
2023-05-13T02:33:01.652Z,12.30
2023-05-13T02:35:30.148Z,12.10
2023-05-13T02:37:58.817Z,13.50
2023-05-13T02:40:27.545Z,12.40
2023-05-13T02:42:55.877Z,11.00
2023-05-13T02:45:26.110Z,12.30
2023-05-13T02:47:54.399Z,19.70
2023-05-13T02:50:23.272Z,14.00
2023-05-13T02:52:51.901Z,14.00
2023-05-13T02:55:20.075Z,13.00
2023-05-13T02:57:48.048Z,11.60
2023-05-13T03:00:16.760Z,11.80
2023-05-13T03:02:44.783Z,9.90
2023-05-13T03:05:12.767Z,13.40
2023-05-13T03:07:40.764Z,12.50
2023-05-13T03:10:09.290Z,13.40
2023-05-13T03:12:37.203Z,12.10
2023-05-13T03:15:05.337Z,13.20
2023-05-13T03:17:33.602Z,10.70
2023-05-13T03:20:01.642Z,12.30
2023-05-13T03:22:29.896Z,11.20
2023-05-13T03:24:58.611Z,12.50
2023-05-13T03:27:33.342Z,10.10
2023-05-13T03:30:01.317Z,13.40
2023-05-13T03:32:32.013Z,11.50
2023-05-13T03:35:03.187Z,11.50
2023-05-13T03:37:31.405Z,10.30
2023-05-13T03:39:59.384Z,10.00
2023-05-13T03:42:27.939Z,12.00
2023-05-13T03:44:57.240Z,14.10
2023-05-13T03:47:25.627Z,23.60
2023-05-13T03:49:54.637Z,18.00
2023-05-13T03:52:23.213Z,15.20
2023-05-13T03:54:51.197Z,12.60
2023-05-13T03:57:19.248Z,16.60
2023-05-13T03:59:47.611Z,16.30
2023-05-13T04:02:15.525Z,10.30
2023-05-13T04:04:43.474Z,12.50
2023-05-13T04:07:11.385Z,11.80
2023-05-13T04:09:39.411Z,12.20
2023-05-13T04:12:07.534Z,9.20
2023-05-13T04:14:35.444Z,10.10
2023-05-13T04:17:04.150Z,14.70
2023-05-13T04:19:32.193Z,12.60
2023-05-13T04:22:00.289Z,16.50
2023-05-13T04:24:28.145Z,10.20
2023-05-13T04:26:56.189Z,14.60
2023-05-13T04:29:24.925Z,15.30
2023-05-13T04:31:52.924Z,17.60
2023-05-13T04:34:21.326Z,20.00
2023-05-13T04:36:49.760Z,17.40
2023-05-13T04:39:17.710Z,11.10
2023-05-13T04:41:46.353Z,12.90
2023-05-13T04:44:14.394Z,13.50
2023-05-13T04:46:45.010Z,12.10
2023-05-13T04:49:13.104Z,9.00
2023-05-13T04:51:41.713Z,9.40
2023-05-13T04:54:10.202Z,9.80
2023-05-13T04:56:38.176Z,11.00
2023-05-13T04:59:06.133Z,9.40
2023-05-13T05:01:34.184Z,10.10
2023-05-13T05:04:02.727Z,11.80
2023-05-13T05:06:32.603Z,13.40
2023-05-13T05:09:01.231Z,9.30
2023-05-13T05:11:29.300Z,12.30
2023-05-13T05:13:57.745Z,9.90
2023-05-13T05:16:25.776Z,12.30
2023-05-13T05:18:53.806Z,10.90
2023-05-13T05:21:21.864Z,9.40
2023-05-13T05:23:50.616Z,8.90
2023-05-13T05:26:19.808Z,12.80
2023-05-13T05:28:48.618Z,12.60
2023-05-13T05:31:18.293Z,11.90
2023-05-13T05:33:46.309Z,13.00
2023-05-13T05:36:14.244Z,11.30
2023-05-13T05:38:42.194Z,14.50
2023-05-13T05:41:11.032Z,17.50
2023-05-13T05:43:39.003Z,14.40
2023-05-13T05:46:07.125Z,17.00
2023-05-13T05:48:35.182Z,9.90
2023-05-13T05:51:04.224Z,8.80
2023-05-13T05:53:37.637Z,10.30
2023-05-13T05:56:06.894Z,8.50
2023-05-13T05:58:36.019Z,13.00
2023-05-13T06:01:04.061Z,13.70
2023-05-13T06:03:32.226Z,11.30
2023-05-13T06:06:00.415Z,11.00
2023-05-13T06:08:30.464Z,13.10
2023-05-13T06:10:59.446Z,11.70
2023-05-13T06:13:27.605Z,8.40
2023-05-13T06:15:56.451Z,9.70
2023-05-13T06:18:24.630Z,8.40
2023-05-13T06:20:52.559Z,12.50
2023-05-13T06:23:20.502Z,11.10
2023-05-13T06:25:48.507Z,9.60
2023-05-13T06:28:16.556Z,21.40
2023-05-13T06:30:46.030Z,10.30
2023-05-13T06:33:14.057Z,11.80
2023-05-13T06:35:42.310Z,13.00
2023-05-13T06:38:13.247Z,7.20
2023-05-13T06:40:41.416Z,9.40
2023-05-13T06:43:09.439Z,9.30
2023-05-13T06:45:40.366Z,8.10
2023-05-13T06:48:08.661Z,8.00
2023-05-13T06:50:38.167Z,10.60
2023-05-13T06:53:06.155Z,7.60
2023-05-13T06:55:35.993Z,8.80
2023-05-13T06:58:03.924Z,7.70
2023-05-13T07:00:31.858Z,7.00
2023-05-13T07:02:59.974Z,9.70
2023-05-13T07:05:27.930Z,9.60
2023-05-13T07:07:55.925Z,8.60
2023-05-13T07:10:24.244Z,9.50
2023-05-13T07:12:52.681Z,10.60
2023-05-13T07:15:21.234Z,8.30
2023-05-13T07:17:49.531Z,9.90
2023-05-13T07:20:22.230Z,12.40
2023-05-13T07:22:51.250Z,12.00
2023-05-13T07:25:19.246Z,10.10
2023-05-13T07:27:47.939Z,9.50
2023-05-13T07:30:16.111Z,9.10
2023-05-13T07:32:44.308Z,8.40
2023-05-13T07:35:12.422Z,9.90
2023-05-13T07:37:40.486Z,10.90
2023-05-13T07:40:09.088Z,7.90
2023-05-13T07:42:37.602Z,14.90
2023-05-13T07:45:06.678Z,8.60
2023-05-13T07:47:34.829Z,7.10
2023-05-13T07:50:02.889Z,8.70
2023-05-13T07:52:31.805Z,8.60
2023-05-13T07:54:59.692Z,9.90
2023-05-13T07:57:27.681Z,9.70
2023-05-13T07:59:55.718Z,10.30
2023-05-13T08:02:24.554Z,6.10
2023-05-13T08:04:52.548Z,8.90
2023-05-13T08:07:20.607Z,10.00
2023-05-13T08:09:48.522Z,6.60
2023-05-13T08:12:16.433Z,7.10
2023-05-13T08:14:44.310Z,11.50
2023-05-13T08:17:12.186Z,9.70
2023-05-13T08:19:40.441Z,11.20
2023-05-13T08:22:08.379Z,7.60
2023-05-13T08:24:36.309Z,7.00
2023-05-13T08:27:05.827Z,7.90
2023-05-13T08:29:33.720Z,7.70
2023-05-13T08:32:01.723Z,9.00
2023-05-13T08:34:29.708Z,6.60
2023-05-13T08:36:57.544Z,7.50
2023-05-13T08:39:25.574Z,11.50
2023-05-13T08:41:56.938Z,5.90
2023-05-13T08:44:28.764Z,8.00
2023-05-13T08:47:18.724Z,6.90
2023-05-13T08:49:47.062Z,8.80
2023-05-13T08:52:14.958Z,8.50
2023-05-13T08:54:44.207Z,9.80
2023-05-13T08:57:12.132Z,9.00
2023-05-13T08:59:40.373Z,10.10
2023-05-13T09:02:10.427Z,7.50
2023-05-13T09:04:41.277Z,8.00
2023-05-13T09:07:09.846Z,12.00
2023-05-13T09:09:38.060Z,9.60
2023-05-13T09:12:06.216Z,10.50
2023-05-13T09:14:34.679Z,7.10
2023-05-13T09:17:02.615Z,10.40
2023-05-13T09:19:31.230Z,6.80
2023-05-13T09:21:59.449Z,12.60
2023-05-13T09:24:27.862Z,9.10
2023-05-13T09:26:55.747Z,8.00
2023-05-13T09:29:24.771Z,10.10
2023-05-13T09:31:58.181Z,7.80
2023-05-13T09:37:03.250Z,6.10
2023-05-13T09:39:34.337Z,5.70
2023-05-13T09:42:04.669Z,6.30
2023-05-13T09:44:34.100Z,7.00
2023-05-13T09:47:02.930Z,6.00
2023-05-13T09:49:31.863Z,5.20
2023-05-13T09:51:59.919Z,5.70
2023-05-13T09:54:34.362Z,4.70
2023-05-13T09:57:03.160Z,5.50
2023-05-13T09:59:36.821Z,8.60
2023-05-13T10:02:07.112Z,6.30
2023-05-13T10:04:35.439Z,5.50
2023-05-13T10:07:05.131Z,6.80
2023-05-13T10:09:37.407Z,9.00
2023-05-13T10:12:08.606Z,5.10
2023-05-13T10:14:37.463Z,7.40
2023-05-13T10:17:06.630Z,6.50
2023-05-13T10:19:35.294Z,4.20
2023-05-13T10:22:03.654Z,3.70
2023-05-13T10:24:32.604Z,5.00
2023-05-13T10:27:01.880Z,3.40
2023-05-13T10:29:30.112Z,5.90
2023-05-13T10:31:59.898Z,3.40
2023-05-13T10:34:28.777Z,5.50
2023-05-13T10:37:06.190Z,4.50
2023-05-13T10:40:06.633Z,5.80
2023-05-13T10:42:43.133Z,3.80
2023-05-13T10:45:11.432Z,4.20
2023-05-13T10:47:39.648Z,4.50
2023-05-13T10:50:23.469Z,3.50
2023-05-13T10:52:56.099Z,3.30
2023-05-13T10:55:26.200Z,3.90
2023-05-13T10:58:13.297Z,5.00
2023-05-13T11:00:45.671Z,6.20
2023-05-13T11:03:16.622Z,3.00
2023-05-13T11:05:58.726Z,6.20
2023-05-13T11:08:40.365Z,5.10
2023-05-13T11:11:23.585Z,5.50
2023-05-13T11:13:53.313Z,4.30
2023-05-13T11:16:23.175Z,6.00
2023-05-13T11:18:53.106Z,4.00
2023-05-13T11:21:39.560Z,4.30
2023-05-13T11:24:08.232Z,5.90
2023-05-13T11:26:54.361Z,3.90
2023-05-13T11:29:29.897Z,4.20
2023-05-13T11:32:00.523Z,3.80
2023-05-13T11:34:29.733Z,3.90
2023-05-13T11:37:04.127Z,4.40
2023-05-13T11:39:33.121Z,4.50
2023-05-13T11:42:02.999Z,4.10
2023-05-13T11:44:31.134Z,2.60
2023-05-13T11:47:00.893Z,5.90
2023-05-13T11:49:34.646Z,4.40
2023-05-13T11:52:04.511Z,3.00
2023-05-13T11:54:32.709Z,3.50
2023-05-13T11:57:00.839Z,2.90
2023-05-13T11:59:35.869Z,4.40
2023-05-13T12:02:06.798Z,4.80
2023-05-13T12:04:35.464Z,2.60
2023-05-13T12:07:03.667Z,2.90
2023-05-13T12:09:31.528Z,3.60
2023-05-13T12:11:59.615Z,7.60
2023-05-13T12:14:27.965Z,2.80
2023-05-13T12:16:57.401Z,3.80
2023-05-13T12:19:25.423Z,3.00
2023-05-13T12:21:53.473Z,4.50
2023-05-13T12:24:22.207Z,4.60
2023-05-13T12:26:50.437Z,4.70
2023-05-13T12:29:18.362Z,3.00
2023-05-13T12:32:04.118Z,5.30
2023-05-13T12:34:33.845Z,6.30
2023-05-13T12:37:14.637Z,4.10
2023-05-13T12:39:42.941Z,4.50
2023-05-13T12:42:18.317Z,6.60
2023-05-13T12:44:47.145Z,8.00
2023-05-13T12:47:19.884Z,4.00
2023-05-13T12:49:54.963Z,3.80
2023-05-13T12:52:22.918Z,8.10
2023-05-13T12:54:50.891Z,3.80
2023-05-13T12:57:20.604Z,3.70
2023-05-13T12:59:48.674Z,8.60
2023-05-13T13:02:16.571Z,4.00
2023-05-13T13:04:44.514Z,3.50
2023-05-13T13:07:14.730Z,7.30
2023-05-13T13:09:42.859Z,6.00
2023-05-13T13:12:10.932Z,3.90
2023-05-13T13:14:38.798Z,4.20
2023-05-13T13:17:07.130Z,3.50
2023-05-13T13:19:35.043Z,4.70
2023-05-13T13:22:03.196Z,4.70
2023-05-13T13:24:31.577Z,7.00
2023-05-13T13:26:59.507Z,4.70
2023-05-13T13:29:27.383Z,5.30
2023-05-13T13:31:55.328Z,7.20
2023-05-13T13:34:23.272Z,7.80
2023-05-13T13:36:51.236Z,8.30
2023-05-13T13:39:19.294Z,6.50
2023-05-13T13:41:47.349Z,4.80
2023-05-13T13:44:15.413Z,6.00
2023-05-13T13:46:43.557Z,6.50
2023-05-13T13:49:20.335Z,8.50
2023-05-13T13:51:53.881Z,7.30
2023-05-13T13:54:21.835Z,8.30
2023-05-13T13:56:49.871Z,6.30
2023-05-13T13:59:19.337Z,7.20
2023-05-13T14:01:47.500Z,7.90
2023-05-13T14:04:19.880Z,11.10
2023-05-13T14:06:47.864Z,8.50
2023-05-13T14:09:16.209Z,13.20
2023-05-13T14:11:44.257Z,10.10
2023-05-13T14:14:12.341Z,6.80
2023-05-13T14:16:40.398Z,9.10
2023-05-13T14:19:08.586Z,11.40
2023-05-13T14:21:36.543Z,8.10
2023-05-13T14:24:04.642Z,6.00
2023-05-13T14:26:32.596Z,6.80
2023-05-13T14:29:00.484Z,9.00
2023-05-13T14:31:28.510Z,10.10
2023-05-13T14:33:56.770Z,6.70
2023-05-13T14:36:26.686Z,7.60
2023-05-13T14:38:54.776Z,8.70
2023-05-13T14:41:23.240Z,9.80
2023-05-13T14:43:51.615Z,7.20
2023-05-13T14:46:19.624Z,8.60
2023-05-13T14:48:47.694Z,11.70
2023-05-13T14:51:15.659Z,5.50
2023-05-13T14:53:43.616Z,7.20
2023-05-13T14:56:11.635Z,5.90
2023-05-13T14:58:39.584Z,5.80
2023-05-13T15:01:07.525Z,15.90
2023-05-13T15:03:35.552Z,13.00
2023-05-13T15:06:03.725Z,7.10
2023-05-13T15:08:31.846Z,7.60
2023-05-13T15:11:00.453Z,5.80
2023-05-13T15:13:29.784Z,5.50
2023-05-13T15:15:57.668Z,6.40
2023-05-13T15:18:25.647Z,5.80
2023-05-13T15:20:53.566Z,4.40
2023-05-13T15:23:21.529Z,4.80
2023-05-13T15:25:49.548Z,6.20
2023-05-13T15:28:17.466Z,7.80
2023-05-13T15:30:45.519Z,5.10
2023-05-13T15:33:13.559Z,9.30
2023-05-13T15:35:42.532Z,8.00
2023-05-13T15:38:10.865Z,12.90
2023-05-13T15:40:39.251Z,7.80
2023-05-13T15:43:07.126Z,8.50
2023-05-13T15:45:35.121Z,7.80
2023-05-13T15:48:03.161Z,9.90
2023-05-13T15:50:31.201Z,6.70
2023-05-13T15:52:59.431Z,8.40
2023-05-13T15:55:27.405Z,8.80
2023-05-13T15:57:55.357Z,9.30
2023-05-13T16:00:24.681Z,7.60
2023-05-13T16:02:52.925Z,7.80
2023-05-13T16:05:21.092Z,12.50
2023-05-13T16:07:49.027Z,15.20
2023-05-13T16:10:16.998Z,12.20
2023-05-13T16:12:44.963Z,10.30
2023-05-13T16:15:12.886Z,13.60
2023-05-13T16:17:43.413Z,10.80
2023-05-13T16:20:12.041Z,11.20
2023-05-13T16:22:40.135Z,11.30
2023-05-13T16:25:10.387Z,10.20
2023-05-13T16:27:39.633Z,13.10
2023-05-13T16:30:08.015Z,15.90
2023-05-13T16:32:36.562Z,10.10
2023-05-13T16:35:05.711Z,11.20
2023-05-13T16:37:36.706Z,12.60
2023-05-13T16:40:05.404Z,9.30
2023-05-13T16:42:33.330Z,14.60
2023-05-13T16:45:01.759Z,8.80
2023-05-13T16:47:29.882Z,9.50
2023-05-13T16:49:57.858Z,11.10
2023-05-13T16:52:26.098Z,8.30
2023-05-13T16:54:56.591Z,7.80
2023-05-13T16:57:25.786Z,7.70
2023-05-13T16:59:53.675Z,10.60
2023-05-13T17:02:21.743Z,8.40
2023-05-13T17:04:49.812Z,7.40
2023-05-13T17:07:17.790Z,9.70
2023-05-13T17:09:45.882Z,7.40
2023-05-13T17:12:13.854Z,9.60
2023-05-13T17:14:41.891Z,9.60
2023-05-13T17:17:09.979Z,10.00
2023-05-13T17:19:38.125Z,9.90
2023-05-13T17:22:06.093Z,21.00
2023-05-13T17:24:34.089Z,17.50
2023-05-13T17:27:02.053Z,15.60
2023-05-13T17:29:30.052Z,16.90
2023-05-13T17:31:58.033Z,14.20
2023-05-13T17:34:26.017Z,17.20
2023-05-13T17:36:53.928Z,15.00
2023-05-13T17:39:21.866Z,13.30
2023-05-13T17:41:49.807Z,19.80
2023-05-13T17:44:19.989Z,18.10
2023-05-13T17:46:47.936Z,28.30
2023-05-13T17:49:16.014Z,22.20
2023-05-13T17:51:43.931Z,18.50
2023-05-13T17:54:12.077Z,22.70
2023-05-13T17:56:40.061Z,22.20
2023-05-13T17:59:08.018Z,21.20
2023-05-13T18:01:35.969Z,23.50
2023-05-13T18:04:03.926Z,20.20
2023-05-13T18:06:32.293Z,23.40
2023-05-13T18:09:00.408Z,23.40
2023-05-13T18:11:28.289Z,51.80
2023-05-13T18:13:56.325Z,62.80
2023-05-13T18:16:24.437Z,44.60
2023-05-13T18:18:52.436Z,40.60
2023-05-13T18:21:20.489Z,37.30
2023-05-13T18:23:48.388Z,35.90
2023-05-13T18:26:16.379Z,28.10
2023-05-13T18:28:46.901Z,33.50
2023-05-13T18:31:14.908Z,28.90
2023-05-13T18:33:42.852Z,27.20
2023-05-13T18:36:10.835Z,29.20
2023-05-13T18:38:39.614Z,29.30
2023-05-13T18:41:07.550Z,27.90
2023-05-13T18:43:35.759Z,26.70
2023-05-13T18:46:03.816Z,29.20
2023-05-13T18:48:31.776Z,29.10
2023-05-13T18:50:59.940Z,25.90
2023-05-13T18:53:28.035Z,27.60
2023-05-13T18:55:56.183Z,28.10
2023-05-13T18:58:24.859Z,28.80
2023-05-13T19:00:52.942Z,30.30
2023-05-13T19:03:20.988Z,31.30
2023-05-13T19:05:49.095Z,30.50
2023-05-13T19:08:17.055Z,30.10
2023-05-13T19:10:45.030Z,27.90
2023-05-13T19:13:14.632Z,29.70
2023-05-13T19:15:42.687Z,24.00
2023-05-13T19:18:10.868Z,27.00
2023-05-13T19:20:38.929Z,31.10
2023-05-13T19:23:06.940Z,30.50
2023-05-13T19:25:35.644Z,35.10
2023-05-13T19:28:03.758Z,37.70
2023-05-13T19:30:31.646Z,36.00
2023-05-13T19:32:59.802Z,38.30
2023-05-13T19:35:27.874Z,39.10
2023-05-13T19:37:56.400Z,45.60
2023-05-13T19:40:24.508Z,45.10
2023-05-13T19:42:52.837Z,45.80
2023-05-13T19:45:21.100Z,43.20
2023-05-13T19:47:49.703Z,64.30
2023-05-13T19:50:18.222Z,54.80
2023-05-13T19:52:46.191Z,48.20
2023-05-13T19:55:14.203Z,44.80
2023-05-13T19:57:42.998Z,43.00
2023-05-13T20:00:12.024Z,46.80
2023-05-13T20:02:40.321Z,52.40
2023-05-13T20:05:08.744Z,58.90
2023-05-13T20:07:36.748Z,56.80
2023-05-13T20:10:06.197Z,59.50
2023-05-13T20:12:34.157Z,53.00
2023-05-13T20:15:03.483Z,49.00
2023-05-13T20:17:31.891Z,45.70
2023-05-13T20:20:00.037Z,42.50
2023-05-13T20:22:28.076Z,39.60
2023-05-13T20:24:56.023Z,42.00
2023-05-13T20:27:23.894Z,37.30
2023-05-13T20:29:52.493Z,38.30
2023-05-13T20:32:24.834Z,33.90
2023-05-13T20:34:54.549Z,33.70
2023-05-13T20:37:23.925Z,30.10
2023-05-13T20:39:52.352Z,31.10
2023-05-13T20:42:22.405Z,30.60
2023-05-13T20:44:51.560Z,30.50
2023-05-13T20:47:20.626Z,36.10
2023-05-13T20:49:48.544Z,36.30
2023-05-13T20:52:16.755Z,36.30
2023-05-13T20:54:44.762Z,36.80
2023-05-13T20:57:12.661Z,38.00
2023-05-13T20:59:40.630Z,32.10
2023-05-13T21:02:08.617Z,34.10
2023-05-13T21:04:36.668Z,37.40
2023-05-13T21:07:06.764Z,36.00
2023-05-13T21:09:34.788Z,32.70
2023-05-13T21:12:02.717Z,32.00
2023-05-13T21:14:30.680Z,34.20
2023-05-13T21:17:02.881Z,42.20
2023-05-13T21:19:30.985Z,36.10
2023-05-13T21:22:01.630Z,33.70
2023-05-13T21:24:29.678Z,36.00
2023-05-13T21:26:57.538Z,35.00
2023-05-13T21:29:25.510Z,35.10
2023-05-13T21:31:54.573Z,36.90
2023-05-13T21:34:22.470Z,36.00
2023-05-13T21:36:50.733Z,34.50
2023-05-13T21:39:18.761Z,36.50
2023-05-13T21:41:47.709Z,36.70
2023-05-13T21:44:15.689Z,41.90
2023-05-13T21:46:43.616Z,36.60
2023-05-13T21:49:12.018Z,42.90
2023-05-13T21:51:40.129Z,51.70
2023-05-13T21:54:08.100Z,71.20
2023-05-13T21:56:36.047Z,43.40
2023-05-13T21:59:04.057Z,37.50
2023-05-13T22:01:32.021Z,32.80
2023-05-13T22:04:00.049Z,35.70
2023-05-13T22:06:28.105Z,33.60
2023-05-13T22:08:56.043Z,34.80
2023-05-13T22:11:23.870Z,31.00
2023-05-13T22:13:51.874Z,34.60
2023-05-13T22:16:19.955Z,35.90
2023-05-13T22:18:49.873Z,33.40
2023-05-13T22:21:17.947Z,34.70
2023-05-13T22:23:45.922Z,34.10
2023-05-13T22:26:13.826Z,36.10
2023-05-13T22:28:41.770Z,36.80
2023-05-13T22:31:09.676Z,34.40
2023-05-13T22:33:37.744Z,36.30
2023-05-13T22:36:05.847Z,34.00
2023-05-13T22:38:33.729Z,36.10
2023-05-13T22:41:01.792Z,34.00
2023-05-13T22:43:29.637Z,64.80
2023-05-13T22:45:57.593Z,43.40
2023-05-13T22:48:25.496Z,38.20
2023-05-13T22:50:54.221Z,40.90
2023-05-13T22:53:24.135Z,40.30
2023-05-13T22:55:52.252Z,39.10
2023-05-13T22:58:21.226Z,41.70
2023-05-13T23:00:49.965Z,42.60
2023-05-13T23:03:17.950Z,40.30
2023-05-13T23:05:45.961Z,36.60
2023-05-13T23:08:13.901Z,34.30
2023-05-13T23:10:41.856Z,30.80
2023-05-13T23:13:09.774Z,32.70
2023-05-13T23:15:37.696Z,35.40
2023-05-13T23:18:05.734Z,35.70
2023-05-13T23:20:33.716Z,33.50
2023-05-13T23:23:01.680Z,32.90
2023-05-13T23:25:29.643Z,32.80
2023-05-13T23:27:57.559Z,37.30
2023-05-13T23:30:25.588Z,32.10
2023-05-13T23:32:53.840Z,36.40
2023-05-13T23:35:21.913Z,31.60
2023-05-13T23:37:49.841Z,31.80
2023-05-13T23:40:17.867Z,34.80
2023-05-13T23:42:45.732Z,35.70
2023-05-13T23:45:13.638Z,29.90
2023-05-13T23:47:41.614Z,32.90
2023-05-13T23:50:09.971Z,30.00
2023-05-13T23:52:37.948Z,26.70
2023-05-13T23:55:06.485Z,29.30
2023-05-13T23:57:34.349Z,29.80
